Time,TemperatureF,DewpointF,PressureIn,WindDirection,WindDirectionDegrees,WindSpeedMPH,WindSpeedGustMPH,Humidity,HourlyPrecipIn,Conditions,Clouds,dailyrainin,SoftwareType,DateUTC
2013-10-10 00:14:00,55.0,43.0,30.13,ENE,74,1.0,4.0,65,-99.99,,,-99.99,,2013-10-10 04:14:00,
2013-10-10 00:24:00,54.0,43.0,30.13,ENE,67,2.0,5.0,66,-99.99,,,-99.99,,2013-10-10 04:24:00,
2013-10-10 00:52:00,53.0,43.0,30.13,ENE,67,0.0,4.0,68,-99.99,,,-99.99,,2013-10-10 04:52:00,
2013-10-10 01:12:00,52.0,43.0,30.12,ENE,67,3.0,5.0,72,-99.99,,,-99.99,,2013-10-10 05:12:00,
2013-10-10 01:23:00,52.0,44.0,30.12,ENE,67,1.0,4.0,74,-99.99,,,-99.99,,2013-10-10 05:23:00,
2013-10-10 01:43:00,52.0,44.0,30.12,ENE,67,0.0,1.0,75,-99.99,,,-99.99,,2013-10-10 05:43:00,
2013-10-10 01:53:00,51.0,44.0,30.12,ENE,67,0.0,2.0,76,-99.99,,,-99.99,,2013-10-10 05:53:00,
2013-10-10 02:13:00,51.0,44.0,30.12,ENE,67,0.0,1.0,78,-99.99,,,-99.99,,2013-10-10 06:13:00,
2013-10-10 02:22:00,50.0,44.0,30.12,ENE,67,0.0,1.0,79,-99.99,,,-99.99,,2013-10-10 06:22:00,
2013-10-10 02:42:00,50.0,44.0,30.12,ENE,67,0.0,1.0,81,-99.99,,,-99.99,,2013-10-10 06:42:00,
2013-10-10 02:53:00,50.0,45.0,30.12,ENE,67,0.0,2.0,82,-99.99,,,-99.99,,2013-10-10 06:53:00,
2013-10-10 03:11:00,49.0,44.0,30.13,ENE,67,0.0,3.0,83,-99.99,,,-99.99,,2013-10-10 07:11:00,
2013-10-10 03:21:00,49.0,44.0,30.13,ENE,62,1.0,4.0,84,-99.99,,,-99.99,,2013-10-10 07:21:00,
2013-10-10 03:42:00,49.0,45.0,30.13,ENE,62,0.0,1.0,85,-99.99,,,-99.99,,2013-10-10 07:42:00,
2013-10-10 03:52:00,49.0,45.0,30.13,ENE,62,0.0,1.0,86,-99.99,,,-99.99,,2013-10-10 07:52:00,
2013-10-10 04:11:00,48.0,44.0,30.13,ENE,62,0.0,1.0,87,-99.99,,,-99.99,,2013-10-10 08:11:00,
2013-10-10 04:22:00,48.0,44.0,30.12,ENE,62,0.0,1.0,87,-99.99,,,-99.99,,2013-10-10 08:22:00,
2013-10-10 04:43:00,48.0,45.0,30.12,ENE,62,0.0,3.0,88,-99.99,,,-99.99,,2013-10-10 08:43:00,
2013-10-10 04:52:00,47.0,44.0,30.12,ENE,62,0.0,0.0,88,-99.99,,,-99.99,,2013-10-10 08:52:00,
2013-10-10 05:12:00,47.0,44.0,30.13,ENE,62,0.0,0.0,89,-99.99,,,-99.99,,2013-10-10 09:12:00,
2013-10-10 05:22:00,47.0,44.0,30.13,ENE,62,0.0,0.0,89,-99.99,,,-99.99,,2013-10-10 09:22:00,
2013-10-10 05:43:00,47.0,44.0,30.14,ENE,62,0.0,0.0,89,-99.99,,,-99.99,,2013-10-10 09:43:00,
2013-10-10 05:54:00,46.0,43.0,30.14,ENE,62,0.0,1.0,90,-99.99,,,-99.99,,2013-10-10 09:54:00,
2013-10-10 06:13:00,46.0,44.0,30.14,ENE,62,0.0,0.0,91,-99.99,,,-99.99,,2013-10-10 10:13:00,
2013-10-10 06:23:00,46.0,44.0,30.14,ENE,62,0.0,0.0,91,-99.99,,,-99.99,,2013-10-10 10:23:00,
2013-10-10 06:42:00,46.0,44.0,30.14,ENE,62,0.0,1.0,91,-99.99,,,-99.99,,2013-10-10 10:42:00,
2013-10-10 06:53:00,45.0,43.0,30.14,ENE,62,0.0,1.0,92,-99.99,,,-99.99,,2013-10-10 10:53:00,
2013-10-10 07:12:00,45.0,43.0,30.15,ENE,62,0.0,1.0,92,-99.99,,,-99.99,,2013-10-10 11:12:00,
2013-10-10 07:22:00,45.0,43.0,30.15,ENE,62,0.0,3.0,92,-99.99,,,-99.99,,2013-10-10 11:22:00,
2013-10-10 07:42:00,45.0,43.0,30.15,ENE,62,0.0,1.0,92,-99.99,,,-99.99,,2013-10-10 11:42:00,
2013-10-10 07:57:00,45.0,43.0,30.15,ENE,62,0.0,1.0,92,-99.99,,,-99.99,,2013-10-10 11:57:00,
2013-10-10 08:12:00,45.0,43.0,30.15,ENE,62,0.0,1.0,92,-99.99,,,-99.99,,2013-10-10 12:12:00,
2013-10-10 08:21:00,45.0,43.0,30.15,ENE,62,0.0,0.0,93,-99.99,,,-99.99,,2013-10-10 12:21:00,
2013-10-10 08:42:00,45.0,43.0,30.15,ENE,62,0.0,1.0,93,-99.99,,,-99.99,,2013-10-10 12:42:00,
2013-10-10 08:52:00,45.0,43.0,30.15,ENE,62,0.0,1.0,93,-99.99,,,-99.99,,2013-10-10 12:52:00,
2013-10-10 09:12:00,46.0,44.0,30.15,ENE,62,0.0,1.0,93,-99.99,,,-99.99,,2013-10-10 13:12:00,
2013-10-10 09:21:00,47.0,45.0,30.15,ENE,62,0.0,2.0,92,-99.99,,,-99.99,,2013-10-10 13:21:00,
2013-10-10 09:42:00,48.0,46.0,30.15,ENE,62,0.0,1.0,92,-99.99,,,-99.99,,2013-10-10 13:42:00,
2013-10-10 09:52:00,50.0,47.0,30.15,ENE,62,0.0,1.0,90,-99.99,,,-99.99,,2013-10-10 13:52:00,
2013-10-10 10:11:00,51.0,47.0,30.16,ENE,65,1.0,5.0,86,-99.99,,,-99.99,,2013-10-10 14:11:00,
2013-10-10 10:22:00,53.0,48.0,30.16,ENE,65,3.0,5.0,83,-99.99,,,-99.99,,2013-10-10 14:22:00,
2013-10-10 10:42:00,55.0,49.0,30.16,ENE,76,2.0,5.0,81,-99.99,,,-99.99,,2013-10-10 14:42:00,
2013-10-10 10:52:00,57.0,51.0,30.16,ENE,76,0.0,0.0,79,-99.99,,,-99.99,,2013-10-10 14:52:00,
2013-10-10 11:11:00,60.0,51.0,30.16,East,84,0.0,2.0,72,-99.99,,,-99.99,,2013-10-10 15:11:00,
2013-10-10 11:22:00,62.0,50.0,30.16,East,84,0.0,3.0,65,-99.99,,,-99.99,,2013-10-10 15:22:00,
2013-10-10 11:43:00,64.0,50.0,30.16,East,84,0.0,1.0,60,-99.99,,,-99.99,,2013-10-10 15:43:00,
2013-10-10 11:54:00,66.0,51.0,30.15,East,96,1.0,4.0,58,-99.99,,,-99.99,,2013-10-10 15:54:00,
2013-10-10 12:13:00,67.0,50.0,30.15,East,96,0.0,1.0,54,-99.99,,,-99.99,,2013-10-10 16:13:00,
2013-10-10 12:23:00,70.0,51.0,30.15,East,96,0.0,1.0,51,-99.99,,,-99.99,,2013-10-10 16:23:00,
2013-10-10 12:42:00,72.0,50.0,30.14,East,96,0.0,3.0,46,-99.99,,,-99.99,,2013-10-10 16:42:00,
2013-10-10 13:12:00,74.0,45.0,30.14,SSE,157,0.0,11.0,35,-99.99,,,-99.99,,2013-10-10 17:12:00,
2013-10-10 13:23:00,74.0,45.0,30.13,South,178,1.0,7.0,36,-99.99,,,-99.99,,2013-10-10 17:23:00,
2013-10-10 13:42:00,74.0,44.0,30.13,WSW,258,1.0,5.0,34,-99.99,,,-99.99,,2013-10-10 17:42:00,
2013-10-10 13:53:00,74.0,45.0,30.12,ESE,120,4.0,6.0,36,-99.99,,,-99.99,,2013-10-10 17:53:00,
2013-10-10 14:12:00,74.0,43.0,30.12,South,185,3.0,8.0,33,-99.99,,,-99.99,,2013-10-10 18:12:00,
2013-10-10 14:42:00,77.0,42.0,30.10,ESE,120,2.0,6.0,29,-99.99,,,-99.99,,2013-10-10 18:42:00,
2013-10-10 14:52:00,77.0,42.0,30.09,East,83,2.0,5.0,29,-99.99,,,-99.99,,2013-10-10 18:52:00,
2013-10-10 15:11:00,76.0,44.0,30.09,ESE,115,5.0,8.0,32,-99.99,,,-99.99,,2013-10-10 19:11:00,
2013-10-10 15:22:00,74.0,43.0,30.09,ENE,74,3.0,7.0,33,-99.99,,,-99.99,,2013-10-10 19:22:00,
2013-10-10 15:42:00,73.0,42.0,30.09,NW,307,2.0,5.0,33,-99.99,,,-99.99,,2013-10-10 19:42:00,
2013-10-10 15:53:00,75.0,44.0,30.08,SE,142,3.0,6.0,33,-99.99,,,-99.99,,2013-10-10 19:53:00,
2013-10-10 16:12:00,75.0,41.0,30.08,SE,128,0.0,7.0,30,-99.99,,,-99.99,,2013-10-10 20:12:00,
2013-10-10 16:22:00,77.0,42.0,30.07,SE,128,0.0,7.0,29,-99.99,,,-99.99,,2013-10-10 20:22:00,
2013-10-10 16:42:00,77.0,41.0,30.06,SE,138,2.0,6.0,28,-99.99,,,-99.99,,2013-10-10 20:42:00,
2013-10-10 16:52:00,74.0,42.0,30.06,SE,131,4.0,9.0,32,-99.99,,,-99.99,,2013-10-10 20:52:00,
2013-10-10 17:12:00,74.0,43.0,30.06,East,94,4.0,8.0,33,-99.99,,,-99.99,,2013-10-10 21:12:00,
2013-10-10 17:22:00,73.0,41.0,30.05,NNW,343,1.0,6.0,32,-99.99,,,-99.99,,2013-10-10 21:22:00,
2013-10-10 17:44:00,74.0,43.0,30.05,ESE,115,3.0,9.0,33,-99.99,,,-99.99,,2013-10-10 21:44:00,
2013-10-10 17:54:00,74.0,42.0,30.05,ESE,102,4.0,10.0,32,-99.99,,,-99.99,,2013-10-10 21:54:00,
2013-10-10 18:13:00,73.0,41.0,30.05,SE,128,4.0,6.0,32,-99.99,,,-99.99,,2013-10-10 22:13:00,
2013-10-10 18:24:00,73.0,42.0,30.05,SE,128,3.0,6.0,33,-99.99,,,-99.99,,2013-10-10 22:24:00,
2013-10-10 18:43:00,73.0,43.0,30.05,SE,128,2.0,4.0,34,-99.99,,,-99.99,,2013-10-10 22:43:00,
2013-10-10 18:53:00,72.0,43.0,30.05,SE,128,1.0,5.0,35,-99.99,,,-99.99,,2013-10-10 22:53:00,
2013-10-10 19:12:00,71.0,43.0,30.05,SE,128,0.0,1.0,37,-99.99,,,-99.99,,2013-10-10 23:12:00,
2013-10-10 19:23:00,70.0,45.0,30.05,SE,128,0.0,1.0,41,-99.99,,,-99.99,,2013-10-10 23:23:00,
2013-10-10 19:43:00,68.0,46.0,30.05,SE,128,0.0,1.0,45,-99.99,,,-99.99,,2013-10-10 23:43:00,
2013-10-10 19:53:00,66.0,45.0,30.05,SE,128,0.0,1.0,47,-99.99,,,-99.99,,2013-10-10 23:53:00,
2013-10-10 20:11:00,65.0,46.0,30.05,SE,128,0.0,1.0,50,-99.99,,,-99.99,,2013-10-11 00:11:00,
2013-10-10 20:22:00,64.0,46.0,30.05,SE,128,0.0,0.0,52,-99.99,,,-99.99,,2013-10-11 00:22:00,
2013-10-10 20:42:00,63.0,46.0,30.06,SE,128,0.0,1.0,54,-99.99,,,-99.99,,2013-10-11 00:42:00,
2013-10-10 20:52:00,62.0,46.0,30.06,SE,128,0.0,0.0,55,-99.99,,,-99.99,,2013-10-11 00:52:00,
2013-10-10 21:12:00,61.0,46.0,30.06,SE,128,0.0,1.0,57,-99.99,,,-99.99,,2013-10-11 01:12:00,
2013-10-10 21:22:00,60.0,46.0,30.06,SE,128,0.0,1.0,59,-99.99,,,-99.99,,2013-10-11 01:22:00,
2013-10-10 21:42:00,60.0,46.0,30.06,SE,128,0.0,1.0,60,-99.99,,,-99.99,,2013-10-11 01:42:00,
2013-10-10 21:52:00,59.0,46.0,30.07,SE,128,0.0,1.0,61,-99.99,,,-99.99,,2013-10-11 01:52:00,
2013-10-10 22:12:00,58.0,45.0,30.06,SE,128,0.0,0.0,62,-99.99,,,-99.99,,2013-10-11 02:12:00,
2013-10-10 22:22:00,58.0,46.0,30.06,SE,128,0.0,0.0,64,-99.99,,,-99.99,,2013-10-11 02:22:00,
2013-10-10 22:42:00,57.0,46.0,30.06,SE,128,0.0,1.0,66,-99.99,,,-99.99,,2013-10-11 02:42:00,
2013-10-10 22:52:00,56.0,46.0,30.06,SE,128,0.0,0.0,68,-99.99,,,-99.99,,2013-10-11 02:52:00,
2013-10-10 23:11:00,55.0,45.0,30.05,SE,128,0.0,1.0,69,-99.99,,,-99.99,,2013-10-11 03:11:00,
2013-10-10 23:23:00,54.0,45.0,30.05,SE,128,0.0,2.0,72,-99.99,,,-99.99,,2013-10-11 03:23:00,
2013-10-10 23:44:00,54.0,45.0,30.05,SE,128,0.0,1.0,72,-99.99,,,-99.99,,2013-10-11 03:44:00,
2013-10-10 23:54:00,54.0,46.0,30.05,SE,128,0.0,1.0,73,-99.99,,,-99.99,,2013-10-11 03:54:00,